sensor_id;sensor_type;location;lat;lon;timestamp;P1;durP1;ratioP1;P2;durP2;ratioP2
20056;SDS011;10189;49.546;7.906;2022-08-19T00:01:49;35.20;;;31.67;;
20056;SDS011;10189;49.546;7.906;2022-08-19T00:04:18;33.85;;;30.50;;
20056;SDS011;10189;49.546;7.906;2022-08-19T00:06:52;35.28;;;31.40;;
20056;SDS011;10189;49.546;7.906;2022-08-19T00:09:20;33.88;;;30.58;;
20056;SDS011;10189;49.546;7.906;2022-08-19T00:11:48;35.63;;;31.92;;
20056;SDS011;10189;49.546;7.906;2022-08-19T00:14:15;33.33;;;30.02;;
20056;SDS011;10189;49.546;7.906;2022-08-19T00:16:43;31.88;;;28.88;;
20056;SDS011;10189;49.546;7.906;2022-08-19T00:19:12;34.83;;;31.42;;
20056;SDS011;10189;49.546;7.906;2022-08-19T00:21:40;32.35;;;29.15;;
20056;SDS011;10189;49.546;7.906;2022-08-19T00:24:08;34.10;;;30.50;;
20056;SDS011;10189;49.546;7.906;2022-08-19T00:26:36;32.55;;;29.33;;
20056;SDS011;10189;49.546;7.906;2022-08-19T00:29:03;35.15;;;31.58;;
20056;SDS011;10189;49.546;7.906;2022-08-19T00:31:32;32.83;;;29.42;;
20056;SDS011;10189;49.546;7.906;2022-08-19T00:33:58;32.95;;;29.80;;
20056;SDS011;10189;49.546;7.906;2022-08-19T00:36:25;33.53;;;30.17;;
20056;SDS011;10189;49.546;7.906;2022-08-19T00:38:51;36.22;;;32.53;;
20056;SDS011;10189;49.546;7.906;2022-08-19T00:41:18;33.80;;;30.38;;
20056;SDS011;10189;49.546;7.906;2022-08-19T00:44:06;34.95;;;31.55;;
20056;SDS011;10189;49.546;7.906;2022-08-19T00:46:37;35.60;;;32.05;;
20056;SDS011;10189;49.546;7.906;2022-08-19T00:49:15;36.35;;;32.45;;
20056;SDS011;10189;49.546;7.906;2022-08-19T00:52:43;38.20;;;34.50;;
20056;SDS011;10189;49.546;7.906;2022-08-19T00:54:54;34.13;;;30.73;;
20056;SDS011;10189;49.546;7.906;2022-08-19T00:57:30;33.33;;;29.73;;
20056;SDS011;10189;49.546;7.906;2022-08-19T01:00:09;37.42;;;33.67;;
20056;SDS011;10189;49.546;7.906;2022-08-19T01:02:41;37.20;;;33.35;;
20056;SDS011;10189;49.546;7.906;2022-08-19T01:05:08;36.50;;;32.53;;
20056;SDS011;10189;49.546;7.906;2022-08-19T01:07:40;37.10;;;33.40;;
20056;SDS011;10189;49.546;7.906;2022-08-19T01:10:08;35.72;;;31.88;;
20056;SDS011;10189;49.546;7.906;2022-08-19T01:12:39;37.00;;;33.50;;
20056;SDS011;10189;49.546;7.906;2022-08-19T01:15:07;33.70;;;30.38;;
20056;SDS011;10189;49.546;7.906;2022-08-19T01:17:36;34.70;;;31.17;;
20056;SDS011;10189;49.546;7.906;2022-08-19T01:20:04;35.58;;;31.95;;
20056;SDS011;10189;49.546;7.906;2022-08-19T01:22:36;33.67;;;30.58;;
20056;SDS011;10189;49.546;7.906;2022-08-19T01:25:12;33.20;;;29.92;;
20056;SDS011;10189;49.546;7.906;2022-08-19T01:27:42;35.08;;;31.63;;
20056;SDS011;10189;49.546;7.906;2022-08-19T01:30:15;35.67;;;32.30;;
20056;SDS011;10189;49.546;7.906;2022-08-19T01:32:47;36.50;;;32.90;;
20056;SDS011;10189;49.546;7.906;2022-08-19T01:35:16;33.55;;;30.30;;
20056;SDS011;10189;49.546;7.906;2022-08-19T01:38:26;33.95;;;30.73;;
20056;SDS011;10189;49.546;7.906;2022-08-19T01:40:43;33.30;;;30.00;;
20056;SDS011;10189;49.546;7.906;2022-08-19T01:43:09;33.92;;;30.65;;
20056;SDS011;10189;49.546;7.906;2022-08-19T01:45:35;36.78;;;33.08;;
20056;SDS011;10189;49.546;7.906;2022-08-19T01:48:05;37.15;;;33.65;;
20056;SDS011;10189;49.546;7.906;2022-08-19T01:50:33;37.22;;;33.40;;
20056;SDS011;10189;49.546;7.906;2022-08-19T01:53:00;36.38;;;33.03;;
20056;SDS011;10189;49.546;7.906;2022-08-19T01:55:29;37.47;;;33.67;;
20056;SDS011;10189;49.546;7.906;2022-08-19T01:57:56;36.25;;;32.75;;
20056;SDS011;10189;49.546;7.906;2022-08-19T02:00:28;35.78;;;32.38;;
20056;SDS011;10189;49.546;7.906;2022-08-19T02:02:57;37.63;;;33.83;;
20056;SDS011;10189;49.546;7.906;2022-08-19T02:05:23;38.08;;;34.30;;
20056;SDS011;10189;49.546;7.906;2022-08-19T02:07:49;40.25;;;36.00;;
20056;SDS011;10189;49.546;7.906;2022-08-19T02:10:17;39.10;;;35.40;;
20056;SDS011;10189;49.546;7.906;2022-08-19T02:12:46;38.40;;;34.40;;
20056;SDS011;10189;49.546;7.906;2022-08-19T02:15:14;38.30;;;34.22;;
20056;SDS011;10189;49.546;7.906;2022-08-19T02:17:41;36.20;;;32.78;;
20056;SDS011;10189;49.546;7.906;2022-08-19T02:20:08;37.25;;;33.35;;
20056;SDS011;10189;49.546;7.906;2022-08-19T02:22:35;36.63;;;33.08;;
20056;SDS011;10189;49.546;7.906;2022-08-19T02:25:01;37.42;;;33.78;;
20056;SDS011;10189;49.546;7.906;2022-08-19T02:27:29;36.83;;;33.17;;
20056;SDS011;10189;49.546;7.906;2022-08-19T02:29:56;38.17;;;34.33;;
20056;SDS011;10189;49.546;7.906;2022-08-19T02:32:22;35.80;;;32.25;;
20056;SDS011;10189;49.546;7.906;2022-08-19T02:34:47;35.60;;;32.10;;
20056;SDS011;10189;49.546;7.906;2022-08-19T02:37:14;37.13;;;33.53;;
20056;SDS011;10189;49.546;7.906;2022-08-19T02:39:59;35.63;;;32.22;;
20056;SDS011;10189;49.546;7.906;2022-08-19T02:42:25;34.20;;;30.92;;
20056;SDS011;10189;49.546;7.906;2022-08-19T02:44:51;36.25;;;32.55;;
20056;SDS011;10189;49.546;7.906;2022-08-19T02:47:17;34.05;;;30.77;;
20056;SDS011;10189;49.546;7.906;2022-08-19T02:49:44;35.65;;;32.33;;
20056;SDS011;10189;49.546;7.906;2022-08-19T02:52:11;35.75;;;32.22;;
20056;SDS011;10189;49.546;7.906;2022-08-19T02:54:37;35.97;;;32.65;;
20056;SDS011;10189;49.546;7.906;2022-08-19T02:57:04;33.70;;;30.60;;
20056;SDS011;10189;49.546;7.906;2022-08-19T02:59:31;33.38;;;30.17;;
20056;SDS011;10189;49.546;7.906;2022-08-19T03:01:58;31.80;;;28.85;;
20056;SDS011;10189;49.546;7.906;2022-08-19T03:04:24;34.30;;;30.90;;
20056;SDS011;10189;49.546;7.906;2022-08-19T03:06:50;34.40;;;31.02;;
20056;SDS011;10189;49.546;7.906;2022-08-19T03:09:17;32.83;;;29.48;;
20056;SDS011;10189;49.546;7.906;2022-08-19T03:11:45;31.48;;;28.48;;
20056;SDS011;10189;49.546;7.906;2022-08-19T03:14:12;34.53;;;31.13;;
20056;SDS011;10189;49.546;7.906;2022-08-19T03:16:42;35.60;;;32.30;;
20056;SDS011;10189;49.546;7.906;2022-08-19T03:19:12;34.83;;;31.45;;
20056;SDS011;10189;49.546;7.906;2022-08-19T03:21:41;32.63;;;29.52;;
20056;SDS011;10189;49.546;7.906;2022-08-19T03:24:09;35.60;;;31.95;;
20056;SDS011;10189;49.546;7.906;2022-08-19T03:26:40;34.25;;;30.92;;
20056;SDS011;10189;49.546;7.906;2022-08-19T03:29:13;34.08;;;30.83;;
20056;SDS011;10189;49.546;7.906;2022-08-19T03:31:41;33.28;;;30.08;;
20056;SDS011;10189;49.546;7.906;2022-08-19T03:34:13;34.25;;;30.95;;
20056;SDS011;10189;49.546;7.906;2022-08-19T03:36:44;33.45;;;30.30;;
20056;SDS011;10189;49.546;7.906;2022-08-19T03:39:11;34.22;;;30.95;;
20056;SDS011;10189;49.546;7.906;2022-08-19T03:41:39;32.83;;;29.60;;
20056;SDS011;10189;49.546;7.906;2022-08-19T03:44:07;33.47;;;30.17;;
20056;SDS011;10189;49.546;7.906;2022-08-19T03:46:34;33.13;;;29.67;;
20056;SDS011;10189;49.546;7.906;2022-08-19T03:49:02;32.25;;;28.98;;
20056;SDS011;10189;49.546;7.906;2022-08-19T03:51:36;31.05;;;28.05;;
20056;SDS011;10189;49.546;7.906;2022-08-19T03:54:05;30.13;;;27.25;;
20056;SDS011;10189;49.546;7.906;2022-08-19T03:56:33;30.73;;;27.58;;
20056;SDS011;10189;49.546;7.906;2022-08-19T03:59:03;30.98;;;27.90;;
20056;SDS011;10189;49.546;7.906;2022-08-19T04:01:31;29.33;;;26.38;;
20056;SDS011;10189;49.546;7.906;2022-08-19T04:03:57;27.75;;;25.20;;
20056;SDS011;10189;49.546;7.906;2022-08-19T04:06:27;27.48;;;24.77;;
20056;SDS011;10189;49.546;7.906;2022-08-19T04:08:56;27.35;;;24.77;;
20056;SDS011;10189;49.546;7.906;2022-08-19T04:11:25;25.73;;;23.25;;
20056;SDS011;10189;49.546;7.906;2022-08-19T04:14:16;27.45;;;24.67;;
20056;SDS011;10189;49.546;7.906;2022-08-19T04:16:47;26.23;;;23.58;;
20056;SDS011;10189;49.546;7.906;2022-08-19T04:19:14;25.65;;;23.05;;
20056;SDS011;10189;49.546;7.906;2022-08-19T04:21:43;26.58;;;23.98;;
20056;SDS011;10189;49.546;7.906;2022-08-19T04:24:13;26.80;;;24.08;;
20056;SDS011;10189;49.546;7.906;2022-08-19T04:26:39;26.27;;;23.77;;
20056;SDS011;10189;49.546;7.906;2022-08-19T04:29:07;27.20;;;24.33;;
20056;SDS011;10189;49.546;7.906;2022-08-19T04:34:06;26.35;;;23.65;;
20056;SDS011;10189;49.546;7.906;2022-08-19T04:36:38;25.77;;;23.10;;
20056;SDS011;10189;49.546;7.906;2022-08-19T04:39:08;26.95;;;24.23;;
20056;SDS011;10189;49.546;7.906;2022-08-19T04:41:38;26.38;;;23.77;;
20056;SDS011;10189;49.546;7.906;2022-08-19T04:44:23;25.05;;;22.65;;
20056;SDS011;10189;49.546;7.906;2022-08-19T04:46:49;26.20;;;23.75;;
20056;SDS011;10189;49.546;7.906;2022-08-19T04:49:17;25.50;;;22.90;;
20056;SDS011;10189;49.546;7.906;2022-08-19T04:51:47;25.60;;;23.17;;
20056;SDS011;10189;49.546;7.906;2022-08-19T04:54:15;24.55;;;22.15;;
20056;SDS011;10189;49.546;7.906;2022-08-19T04:56:43;25.90;;;23.10;;
20056;SDS011;10189;49.546;7.906;2022-08-19T04:59:09;24.55;;;22.10;;
20056;SDS011;10189;49.546;7.906;2022-08-19T05:01:36;25.17;;;22.67;;
20056;SDS011;10189;49.546;7.906;2022-08-19T05:04:03;24.40;;;22.10;;
20056;SDS011;10189;49.546;7.906;2022-08-19T05:06:31;25.70;;;23.20;;
20056;SDS011;10189;49.546;7.906;2022-08-19T05:09:01;24.35;;;21.95;;
20056;SDS011;10189;49.546;7.906;2022-08-19T05:11:34;25.35;;;22.75;;
20056;SDS011;10189;49.546;7.906;2022-08-19T05:14:04;23.48;;;21.05;;
20056;SDS011;10189;49.546;7.906;2022-08-19T05:16:32;23.90;;;21.40;;
20056;SDS011;10189;49.546;7.906;2022-08-19T05:18:58;22.70;;;20.52;;
20056;SDS011;10189;49.546;7.906;2022-08-19T05:21:43;23.50;;;21.27;;
20056;SDS011;10189;49.546;7.906;2022-08-19T05:24:33;21.65;;;19.75;;
20056;SDS011;10189;49.546;7.906;2022-08-19T05:27:01;22.60;;;20.40;;
20056;SDS011;10189;49.546;7.906;2022-08-19T05:29:29;22.70;;;20.60;;
20056;SDS011;10189;49.546;7.906;2022-08-19T05:31:56;21.83;;;19.58;;
20056;SDS011;10189;49.546;7.906;2022-08-19T05:34:24;21.73;;;19.65;;
20056;SDS011;10189;49.546;7.906;2022-08-19T05:36:56;23.65;;;21.25;;
20056;SDS011;10189;49.546;7.906;2022-08-19T05:39:26;23.23;;;20.85;;
20056;SDS011;10189;49.546;7.906;2022-08-19T05:41:56;20.23;;;18.30;;
20056;SDS011;10189;49.546;7.906;2022-08-19T05:46:57;21.10;;;19.10;;
20056;SDS011;10189;49.546;7.906;2022-08-19T05:49:26;21.17;;;18.90;;
20056;SDS011;10189;49.546;7.906;2022-08-19T05:51:53;21.85;;;19.75;;
20056;SDS011;10189;49.546;7.906;2022-08-19T05:54:20;21.95;;;19.85;;
20056;SDS011;10189;49.546;7.906;2022-08-19T05:56:48;19.33;;;17.17;;
20056;SDS011;10189;49.546;7.906;2022-08-19T05:59:17;18.23;;;16.33;;
20056;SDS011;10189;49.546;7.906;2022-08-19T06:01:47;20.15;;;18.10;;
20056;SDS011;10189;49.546;7.906;2022-08-19T06:04:15;20.70;;;18.52;;
20056;SDS011;10189;49.546;7.906;2022-08-19T06:06:45;20.70;;;18.60;;
20056;SDS011;10189;49.546;7.906;2022-08-19T06:09:13;18.90;;;17.00;;
20056;SDS011;10189;49.546;7.906;2022-08-19T06:11:41;17.88;;;16.08;;
20056;SDS011;10189;49.546;7.906;2022-08-19T06:14:14;20.58;;;18.40;;
20056;SDS011;10189;49.546;7.906;2022-08-19T06:16:47;21.48;;;19.08;;
20056;SDS011;10189;49.546;7.906;2022-08-19T06:19:17;20.50;;;18.35;;
20056;SDS011;10189;49.546;7.906;2022-08-19T06:21:47;18.67;;;16.55;;
20056;SDS011;10189;49.546;7.906;2022-08-19T06:24:17;20.67;;;18.20;;
20056;SDS011;10189;49.546;7.906;2022-08-19T06:26:48;20.08;;;18.08;;
20056;SDS011;10189;49.546;7.906;2022-08-19T06:29:18;19.60;;;17.73;;
20056;SDS011;10189;49.546;7.906;2022-08-19T06:31:48;19.98;;;17.85;;
20056;SDS011;10189;49.546;7.906;2022-08-19T06:34:18;19.63;;;17.63;;
20056;SDS011;10189;49.546;7.906;2022-08-19T06:36:45;19.10;;;17.35;;
20056;SDS011;10189;49.546;7.906;2022-08-19T06:39:19;20.60;;;17.80;;
20056;SDS011;10189;49.546;7.906;2022-08-19T06:41:52;19.13;;;17.13;;
20056;SDS011;10189;49.546;7.906;2022-08-19T06:44:23;22.10;;;17.80;;
20056;SDS011;10189;49.546;7.906;2022-08-19T06:46:52;20.95;;;17.63;;
20056;SDS011;10189;49.546;7.906;2022-08-19T06:49:19;19.05;;;17.20;;
20056;SDS011;10189;49.546;7.906;2022-08-19T06:51:46;19.83;;;17.67;;
20056;SDS011;10189;49.546;7.906;2022-08-19T06:54:14;18.52;;;16.58;;
20056;SDS011;10189;49.546;7.906;2022-08-19T06:56:42;17.40;;;15.70;;
20056;SDS011;10189;49.546;7.906;2022-08-19T06:59:11;18.50;;;16.70;;
20056;SDS011;10189;49.546;7.906;2022-08-19T07:01:43;18.10;;;16.30;;
20056;SDS011;10189;49.546;7.906;2022-08-19T07:04:17;18.35;;;15.82;;
20056;SDS011;10189;49.546;7.906;2022-08-19T07:06:47;19.45;;;17.33;;
20056;SDS011;10189;49.546;7.906;2022-08-19T07:09:15;19.77;;;17.75;;
20056;SDS011;10189;49.546;7.906;2022-08-19T07:11:47;17.85;;;15.98;;
20056;SDS011;10189;49.546;7.906;2022-08-19T07:14:16;17.83;;;16.13;;
20056;SDS011;10189;49.546;7.906;2022-08-19T07:16:46;22.45;;;18.30;;
20056;SDS011;10189;49.546;7.906;2022-08-19T07:19:15;20.08;;;16.73;;
20056;SDS011;10189;49.546;7.906;2022-08-19T07:21:42;20.40;;;18.35;;
20056;SDS011;10189;49.546;7.906;2022-08-19T07:24:08;21.30;;;19.05;;
20056;SDS011;10189;49.546;7.906;2022-08-19T07:26:39;20.55;;;18.65;;
20056;SDS011;10189;49.546;7.906;2022-08-19T07:29:08;19.90;;;18.00;;
20056;SDS011;10189;49.546;7.906;2022-08-19T07:31:36;19.25;;;17.35;;
20056;SDS011;10189;49.546;7.906;2022-08-19T07:34:03;22.80;;;20.38;;
20056;SDS011;10189;49.546;7.906;2022-08-19T07:36:33;23.67;;;21.10;;
20056;SDS011;10189;49.546;7.906;2022-08-19T07:39:04;20.55;;;18.40;;
20056;SDS011;10189;49.546;7.906;2022-08-19T07:41:54;21.02;;;18.85;;
20056;SDS011;10189;49.546;7.906;2022-08-19T07:44:23;19.08;;;17.10;;
20056;SDS011;10189;49.546;7.906;2022-08-19T07:46:51;18.85;;;16.85;;
20056;SDS011;10189;49.546;7.906;2022-08-19T07:49:21;23.17;;;18.58;;
20056;SDS011;10189;49.546;7.906;2022-08-19T07:51:49;20.98;;;18.85;;
20056;SDS011;10189;49.546;7.906;2022-08-19T07:54:19;20.63;;;18.10;;
20056;SDS011;10189;49.546;7.906;2022-08-19T07:56:48;19.83;;;17.73;;
20056;SDS011;10189;49.546;7.906;2022-08-19T07:59:16;23.92;;;21.45;;
20056;SDS011;10189;49.546;7.906;2022-08-19T08:01:43;25.13;;;22.20;;
20056;SDS011;10189;49.546;7.906;2022-08-19T08:04:10;20.45;;;18.38;;
20056;SDS011;10189;49.546;7.906;2022-08-19T08:06:55;21.88;;;19.77;;
20056;SDS011;10189;49.546;7.906;2022-08-19T08:09:41;20.35;;;18.25;;
20056;SDS011;10189;49.546;7.906;2022-08-19T08:12:28;21.80;;;19.70;;
20056;SDS011;10189;49.546;7.906;2022-08-19T08:15:07;21.83;;;19.70;;
20056;SDS011;10189;49.546;7.906;2022-08-19T08:17:41;22.52;;;20.10;;
20056;SDS011;10189;49.546;7.906;2022-08-19T08:20:09;21.30;;;19.10;;
20056;SDS011;10189;49.546;7.906;2022-08-19T08:22:36;23.15;;;20.50;;
20056;SDS011;10189;49.546;7.906;2022-08-19T08:25:25;24.60;;;22.20;;
20056;SDS011;10189;49.546;7.906;2022-08-19T08:27:51;24.25;;;21.75;;
20056;SDS011;10189;49.546;7.906;2022-08-19T08:30:24;23.13;;;20.83;;
20056;SDS011;10189;49.546;7.906;2022-08-19T08:32:52;22.35;;;20.15;;
20056;SDS011;10189;49.546;7.906;2022-08-19T08:35:19;20.92;;;18.77;;
20056;SDS011;10189;49.546;7.906;2022-08-19T08:37:48;20.73;;;18.83;;
20056;SDS011;10189;49.546;7.906;2022-08-19T08:40:39;20.58;;;18.60;;
20056;SDS011;10189;49.546;7.906;2022-08-19T08:43:14;17.98;;;16.17;;
20056;SDS011;10189;49.546;7.906;2022-08-19T08:46:00;17.50;;;15.85;;
20056;SDS011;10189;49.546;7.906;2022-08-19T08:51:32;18.90;;;16.98;;
20056;SDS011;10189;49.546;7.906;2022-08-19T08:54:07;16.55;;;15.05;;
20056;SDS011;10189;49.546;7.906;2022-08-19T08:56:38;20.42;;;18.33;;
20056;SDS011;10189;49.546;7.906;2022-08-19T08:59:10;19.55;;;17.63;;
20056;SDS011;10189;49.546;7.906;2022-08-19T09:01:56;16.35;;;14.80;;
20056;SDS011;10189;49.546;7.906;2022-08-19T09:04:22;17.02;;;15.35;;
20056;SDS011;10189;49.546;7.906;2022-08-19T09:15:33;19.80;;;16.10;;
20056;SDS011;10189;49.546;7.906;2022-08-19T09:18:07;16.92;;;15.43;;
20056;SDS011;10189;49.546;7.906;2022-08-19T09:20:34;18.23;;;16.33;;
20056;SDS011;10189;49.546;7.906;2022-08-19T09:22:59;18.13;;;16.33;;
20056;SDS011;10189;49.546;7.906;2022-08-19T09:25:26;17.55;;;15.77;;
20056;SDS011;10189;49.546;7.906;2022-08-19T09:27:52;19.02;;;17.00;;
20056;SDS011;10189;49.546;7.906;2022-08-19T09:30:25;20.05;;;17.88;;
20056;SDS011;10189;49.546;7.906;2022-08-19T09:32:55;19.15;;;17.23;;
20056;SDS011;10189;49.546;7.906;2022-08-19T09:35:21;17.75;;;16.10;;
20056;SDS011;10189;49.546;7.906;2022-08-19T09:37:51;20.58;;;18.38;;
20056;SDS011;10189;49.546;7.906;2022-08-19T09:40:19;20.65;;;18.73;;
20056;SDS011;10189;49.546;7.906;2022-08-19T09:42:45;21.75;;;19.77;;
20056;SDS011;10189;49.546;7.906;2022-08-19T09:45:15;21.85;;;19.83;;
20056;SDS011;10189;49.546;7.906;2022-08-19T09:47:48;22.15;;;20.08;;
20056;SDS011;10189;49.546;7.906;2022-08-19T09:50:17;22.85;;;20.77;;
20056;SDS011;10189;49.546;7.906;2022-08-19T09:52:43;21.80;;;19.90;;
20056;SDS011;10189;49.546;7.906;2022-08-19T09:55:11;20.55;;;18.63;;
20056;SDS011;10189;49.546;7.906;2022-08-19T09:57:37;25.55;;;23.20;;
20056;SDS011;10189;49.546;7.906;2022-08-19T10:00:04;21.30;;;18.75;;
20056;SDS011;10189;49.546;7.906;2022-08-19T10:02:33;19.13;;;17.37;;
20056;SDS011;10189;49.546;7.906;2022-08-19T10:05:01;14.30;;;12.88;;
20056;SDS011;10189;49.546;7.906;2022-08-19T10:07:46;17.08;;;15.48;;
20056;SDS011;10189;49.546;7.906;2022-08-19T10:10:12;16.88;;;15.30;;
20056;SDS011;10189;49.546;7.906;2022-08-19T10:12:38;16.42;;;14.98;;
20056;SDS011;10189;49.546;7.906;2022-08-19T10:15:05;16.98;;;15.43;;
20056;SDS011;10189;49.546;7.906;2022-08-19T10:17:31;15.82;;;14.43;;
20056;SDS011;10189;49.546;7.906;2022-08-19T10:20:00;18.00;;;16.20;;
20056;SDS011;10189;49.546;7.906;2022-08-19T10:22:29;17.92;;;16.23;;
20056;SDS011;10189;49.546;7.906;2022-08-19T10:24:55;17.38;;;15.93;;
20056;SDS011;10189;49.546;7.906;2022-08-19T10:27:22;17.65;;;15.55;;
20056;SDS011;10189;49.546;7.906;2022-08-19T10:29:48;15.50;;;14.20;;
20056;SDS011;10189;49.546;7.906;2022-08-19T10:32:14;9.93;;;8.90;;
20056;SDS011;10189;49.546;7.906;2022-08-19T10:34:40;9.50;;;8.25;;
20056;SDS011;10189;49.546;7.906;2022-08-19T10:37:06;9.35;;;8.60;;
20056;SDS011;10189;49.546;7.906;2022-08-19T10:39:33;9.25;;;8.35;;
20056;SDS011;10189;49.546;7.906;2022-08-19T10:42:04;9.25;;;7.85;;
20056;SDS011;10189;49.546;7.906;2022-08-19T10:44:32;8.00;;;7.35;;
20056;SDS011;10189;49.546;7.906;2022-08-19T10:47:00;8.00;;;7.30;;
20056;SDS011;10189;49.546;7.906;2022-08-19T10:49:27;9.10;;;7.10;;
20056;SDS011;10189;49.546;7.906;2022-08-19T10:51:54;6.95;;;6.45;;
20056;SDS011;10189;49.546;7.906;2022-08-19T10:54:39;7.00;;;6.30;;
20056;SDS011;10189;49.546;7.906;2022-08-19T10:57:24;7.22;;;6.55;;
20056;SDS011;10189;49.546;7.906;2022-08-19T10:59:55;6.78;;;6.07;;
20056;SDS011;10189;49.546;7.906;2022-08-19T11:02:21;7.90;;;6.57;;
20056;SDS011;10189;49.546;7.906;2022-08-19T11:04:47;6.43;;;5.82;;
20056;SDS011;10189;49.546;7.906;2022-08-19T11:07:15;6.45;;;5.85;;
20056;SDS011;10189;49.546;7.906;2022-08-19T11:09:42;6.90;;;6.25;;
20056;SDS011;10189;49.546;7.906;2022-08-19T11:12:08;6.13;;;5.60;;
20056;SDS011;10189;49.546;7.906;2022-08-19T11:14:37;6.20;;;5.70;;
20056;SDS011;10189;49.546;7.906;2022-08-19T11:17:04;6.32;;;5.20;;
20056;SDS011;10189;49.546;7.906;2022-08-19T11:19:31;5.88;;;5.40;;
20056;SDS011;10189;49.546;7.906;2022-08-19T11:21:58;5.93;;;5.38;;
20056;SDS011;10189;49.546;7.906;2022-08-19T11:24:26;5.78;;;5.15;;
20056;SDS011;10189;49.546;7.906;2022-08-19T11:26:53;6.90;;;5.22;;
20056;SDS011;10189;49.546;7.906;2022-08-19T11:29:27;6.05;;;5.47;;
20056;SDS011;10189;49.546;7.906;2022-08-19T11:31:54;7.18;;;5.28;;
20056;SDS011;10189;49.546;7.906;2022-08-19T11:34:21;6.95;;;5.10;;
20056;SDS011;10189;49.546;7.906;2022-08-19T11:36:52;5.28;;;4.80;;
20056;SDS011;10189;49.546;7.906;2022-08-19T11:39:23;5.65;;;5.03;;
20056;SDS011;10189;49.546;7.906;2022-08-19T11:41:50;6.65;;;5.10;;
20056;SDS011;10189;49.546;7.906;2022-08-19T11:44:16;5.20;;;4.70;;
20056;SDS011;10189;49.546;7.906;2022-08-19T11:46:44;6.05;;;5.30;;
20056;SDS011;10189;49.546;7.906;2022-08-19T11:49:12;6.05;;;5.38;;
20056;SDS011;10189;49.546;7.906;2022-08-19T11:51:40;5.30;;;4.90;;
20056;SDS011;10189;49.546;7.906;2022-08-19T11:54:10;5.40;;;5.00;;
20056;SDS011;10189;49.546;7.906;2022-08-19T11:56:39;5.78;;;4.80;;
20056;SDS011;10189;49.546;7.906;2022-08-19T11:59:06;8.40;;;5.07;;
20056;SDS011;10189;49.546;7.906;2022-08-19T12:01:32;6.72;;;4.55;;
20056;SDS011;10189;49.546;7.906;2022-08-19T12:03:59;5.85;;;4.70;;
20056;SDS011;10189;49.546;7.906;2022-08-19T12:06:27;5.32;;;4.93;;
20056;SDS011;10189;49.546;7.906;2022-08-19T12:08:57;5.28;;;4.80;;
20056;SDS011;10189;49.546;7.906;2022-08-19T12:11:30;5.10;;;4.70;;
20056;SDS011;10189;49.546;7.906;2022-08-19T12:13:56;5.38;;;4.88;;
20056;SDS011;10189;49.546;7.906;2022-08-19T12:16:24;5.72;;;5.20;;
20056;SDS011;10189;49.546;7.906;2022-08-19T12:18:54;5.38;;;4.75;;
20056;SDS011;10189;49.546;7.906;2022-08-19T12:21:22;5.90;;;5.30;;
20056;SDS011;10189;49.546;7.906;2022-08-19T12:23:54;6.07;;;4.95;;
20056;SDS011;10189;49.546;7.906;2022-08-19T12:26:22;5.78;;;4.75;;
20056;SDS011;10189;49.546;7.906;2022-08-19T12:28:50;5.70;;;5.05;;
20056;SDS011;10189;49.546;7.906;2022-08-19T12:31:17;5.88;;;5.03;;
20056;SDS011;10189;49.546;7.906;2022-08-19T12:33:45;5.45;;;5.05;;
20056;SDS011;10189;49.546;7.906;2022-08-19T12:36:13;5.22;;;4.55;;
20056;SDS011;10189;49.546;7.906;2022-08-19T12:38:41;5.30;;;4.80;;
20056;SDS011;10189;49.546;7.906;2022-08-19T12:41:10;5.43;;;4.50;;
20056;SDS011;10189;49.546;7.906;2022-08-19T12:43:38;5.25;;;4.85;;
20056;SDS011;10189;49.546;7.906;2022-08-19T12:46:04;7.75;;;4.88;;
20056;SDS011;10189;49.546;7.906;2022-08-19T12:48:31;5.88;;;5.38;;
20056;SDS011;10189;49.546;7.906;2022-08-19T12:50:58;5.15;;;4.75;;
20056;SDS011;10189;49.546;7.906;2022-08-19T12:53:25;5.18;;;4.68;;
20056;SDS011;10189;49.546;7.906;2022-08-19T12:55:55;5.85;;;5.10;;
20056;SDS011;10189;49.546;7.906;2022-08-19T12:58:23;5.78;;;5.28;;
20056;SDS011;10189;49.546;7.906;2022-08-19T13:00:49;5.28;;;4.78;;
20056;SDS011;10189;49.546;7.906;2022-08-19T13:03:15;6.75;;;5.10;;
20056;SDS011;10189;49.546;7.906;2022-08-19T13:05:41;5.85;;;5.35;;
20056;SDS011;10189;49.546;7.906;2022-08-19T13:08:07;5.93;;;5.20;;
20056;SDS011;10189;49.546;7.906;2022-08-19T13:10:34;5.57;;;5.07;;
20056;SDS011;10189;49.546;7.906;2022-08-19T13:13:02;5.82;;;5.32;;
20056;SDS011;10189;49.546;7.906;2022-08-19T13:18:00;6.00;;;5.50;;
20056;SDS011;10189;49.546;7.906;2022-08-19T13:20:26;5.55;;;5.15;;
20056;SDS011;10189;49.546;7.906;2022-08-19T13:22:52;7.20;;;5.40;;
20056;SDS011;10189;49.546;7.906;2022-08-19T13:25:19;6.10;;;5.50;;
20056;SDS011;10189;49.546;7.906;2022-08-19T13:27:47;6.03;;;5.53;;
20056;SDS011;10189;49.546;7.906;2022-08-19T13:30:16;5.57;;;5.07;;
20056;SDS011;10189;49.546;7.906;2022-08-19T13:33:03;5.78;;;5.25;;
20056;SDS011;10189;49.546;7.906;2022-08-19T13:35:49;5.90;;;5.30;;
20056;SDS011;10189;49.546;7.906;2022-08-19T13:38:22;5.95;;;5.53;;
20056;SDS011;10189;49.546;7.906;2022-08-19T13:40:49;6.10;;;5.55;;
20056;SDS011;10189;49.546;7.906;2022-08-19T13:43:19;6.50;;;5.40;;
20056;SDS011;10189;49.546;7.906;2022-08-19T13:45:48;5.88;;;5.38;;
20056;SDS011;10189;49.546;7.906;2022-08-19T13:48:18;6.05;;;5.55;;
20056;SDS011;10189;49.546;7.906;2022-08-19T13:50:44;6.20;;;5.60;;
20056;SDS011;10189;49.546;7.906;2022-08-19T13:53:13;6.40;;;5.80;;
20056;SDS011;10189;49.546;7.906;2022-08-19T13:55:41;6.30;;;4.85;;
20056;SDS011;10189;49.546;7.906;2022-08-19T13:58:09;5.95;;;5.38;;
20056;SDS011;10189;49.546;7.906;2022-08-19T14:00:38;6.30;;;5.80;;
20056;SDS011;10189;49.546;7.906;2022-08-19T14:05:35;5.50;;;5.07;;
20056;SDS011;10189;49.546;7.906;2022-08-19T14:08:02;6.03;;;5.43;;
20056;SDS011;10189;49.546;7.906;2022-08-19T14:10:28;6.03;;;5.47;;
20056;SDS011;10189;49.546;7.906;2022-08-19T14:12:57;6.25;;;5.75;;
20056;SDS011;10189;49.546;7.906;2022-08-19T14:15:28;6.63;;;6.03;;
20056;SDS011;10189;49.546;7.906;2022-08-19T14:17:55;6.55;;;6.03;;
20056;SDS011;10189;49.546;7.906;2022-08-19T14:20:21;7.63;;;6.28;;
20056;SDS011;10189;49.546;7.906;2022-08-19T14:22:49;8.95;;;6.30;;
20056;SDS011;10189;49.546;7.906;2022-08-19T14:25:16;7.00;;;5.78;;
20056;SDS011;10189;49.546;7.906;2022-08-19T14:30:14;6.68;;;6.07;;
20056;SDS011;10189;49.546;7.906;2022-08-19T14:32:46;6.80;;;6.28;;
20056;SDS011;10189;49.546;7.906;2022-08-19T14:35:12;6.55;;;6.00;;
20056;SDS011;10189;49.546;7.906;2022-08-19T14:37:42;7.70;;;5.97;;
20056;SDS011;10189;49.546;7.906;2022-08-19T14:40:10;6.75;;;6.18;;
20056;SDS011;10189;49.546;7.906;2022-08-19T14:42:38;6.85;;;5.90;;
20056;SDS011;10189;49.546;7.906;2022-08-19T14:45:04;6.82;;;6.22;;
20056;SDS011;10189;49.546;7.906;2022-08-19T14:47:31;6.10;;;5.70;;
20056;SDS011;10189;49.546;7.906;2022-08-19T14:49:58;6.45;;;5.85;;
20056;SDS011;10189;49.546;7.906;2022-08-19T14:52:24;6.80;;;6.20;;
20056;SDS011;10189;49.546;7.906;2022-08-19T14:54:50;7.85;;;6.18;;
20056;SDS011;10189;49.546;7.906;2022-08-19T14:57:16;7.05;;;6.35;;
20056;SDS011;10189;49.546;7.906;2022-08-19T14:59:42;7.40;;;6.47;;
20056;SDS011;10189;49.546;7.906;2022-08-19T15:02:09;7.10;;;6.47;;
20056;SDS011;10189;49.546;7.906;2022-08-19T15:04:36;7.38;;;6.68;;
20056;SDS011;10189;49.546;7.906;2022-08-19T15:07:03;8.10;;;7.32;;